createdAt,value
2019-03-12T00:02:09.912Z,5.20
2019-03-12T00:04:40.949Z,5.30
2019-03-12T00:07:09.239Z,5.30
2019-03-12T00:09:37.253Z,5.30
2019-03-12T00:12:05.337Z,5.30
2019-03-12T00:14:33.246Z,5.40
2019-03-12T00:17:02.206Z,5.30
2019-03-12T00:19:29.733Z,5.30
2019-03-12T00:21:57.870Z,5.30
2019-03-12T00:24:25.830Z,5.40
2019-03-12T00:26:53.860Z,5.30
2019-03-12T00:29:23.616Z,5.20
2019-03-12T00:31:51.905Z,5.00
2019-03-12T00:34:21.643Z,4.90
2019-03-12T00:36:50.320Z,4.70
2019-03-12T00:39:18.501Z,4.60
2019-03-12T00:41:46.751Z,4.50
2019-03-12T00:44:16.984Z,4.50
2019-03-12T00:46:44.930Z,4.50
2019-03-12T00:49:13.041Z,4.40
2019-03-12T00:51:40.820Z,4.30
2019-03-12T00:54:08.720Z,4.40
2019-03-12T00:56:36.795Z,4.50
2019-03-12T00:59:04.967Z,4.60
2019-03-12T01:01:33.434Z,4.70
2019-03-12T01:04:02.608Z,4.80
2019-03-12T01:06:31.430Z,4.80
2019-03-12T01:08:59.432Z,4.80
2019-03-12T01:11:28.591Z,4.80
2019-03-12T01:14:01.196Z,4.70
2019-03-12T01:16:29.000Z,4.70
2019-03-12T01:18:57.186Z,4.60
2019-03-12T01:21:25.030Z,4.60
2019-03-12T01:23:52.962Z,4.60
2019-03-12T01:26:21.031Z,4.60
2019-03-12T01:28:49.043Z,4.60
2019-03-12T01:31:16.810Z,4.70
2019-03-12T01:33:44.807Z,4.70
2019-03-12T01:36:13.137Z,4.70
2019-03-12T01:38:41.034Z,4.60
2019-03-12T01:41:08.838Z,4.60
2019-03-12T01:43:36.691Z,4.60
2019-03-12T01:46:04.930Z,4.70
2019-03-12T01:48:33.289Z,4.60
2019-03-12T01:51:00.848Z,4.60
2019-03-12T01:53:28.653Z,4.60
2019-03-12T01:55:56.918Z,4.50
2019-03-12T01:58:24.497Z,4.50
2019-03-12T02:00:52.237Z,4.50
2019-03-12T02:03:20.265Z,4.70
2019-03-12T02:05:49.131Z,4.60
2019-03-12T02:08:16.673Z,4.60
2019-03-12T02:10:44.793Z,4.70
2019-03-12T02:13:12.605Z,4.80
2019-03-12T02:15:40.283Z,4.80
2019-03-12T02:18:08.389Z,4.70
2019-03-12T02:20:35.877Z,4.70
2019-03-12T02:23:08.175Z,4.80
2019-03-12T02:25:37.605Z,4.70
2019-03-12T02:28:05.426Z,4.50
2019-03-12T02:30:33.570Z,4.50
2019-03-12T02:33:01.425Z,4.60
2019-03-12T02:35:30.030Z,4.70
2019-03-12T02:37:57.701Z,4.60
2019-03-12T02:40:25.585Z,4.60
2019-03-12T02:42:53.638Z,4.50
2019-03-12T02:45:21.492Z,4.40
2019-03-12T02:47:49.720Z,4.40
2019-03-12T02:50:17.548Z,4.40
2019-03-12T02:52:45.126Z,4.40
2019-03-12T02:55:13.954Z,4.40
2019-03-12T02:57:41.521Z,4.50
2019-03-12T03:00:19.437Z,4.50
2019-03-12T03:02:47.374Z,4.40
2019-03-12T03:05:15.001Z,4.40
2019-03-12T03:07:53.388Z,4.30
2019-03-12T03:10:21.359Z,4.30
2019-03-12T03:12:50.118Z,4.40
2019-03-12T03:15:22.645Z,4.50
2019-03-12T03:17:50.540Z,4.50
2019-03-12T03:20:18.299Z,4.50
2019-03-12T03:22:45.847Z,4.60
2019-03-12T03:25:14.401Z,4.50
2019-03-12T03:27:42.745Z,4.50
2019-03-12T03:30:14.860Z,4.40
2019-03-12T03:32:42.656Z,4.30
2019-03-12T03:35:10.371Z,4.40
2019-03-12T03:37:38.441Z,4.30
2019-03-12T03:40:06.117Z,4.20
2019-03-12T03:42:34.112Z,4.20
2019-03-12T03:45:02.640Z,4.30
2019-03-12T03:47:30.408Z,4.30
2019-03-12T03:49:58.259Z,4.20
2019-03-12T03:52:26.209Z,4.20
2019-03-12T03:54:55.328Z,4.10
2019-03-12T03:57:23.406Z,4.10
2019-03-12T03:59:52.739Z,4.00
2019-03-12T04:02:20.864Z,3.90
2019-03-12T04:04:48.959Z,3.90
2019-03-12T04:07:16.821Z,3.80
2019-03-12T04:09:44.609Z,3.90
2019-03-12T04:12:14.621Z,3.90
2019-03-12T04:14:42.653Z,3.90
2019-03-12T04:17:10.561Z,3.80
2019-03-12T04:19:40.768Z,3.70
2019-03-12T04:22:08.593Z,3.60
2019-03-12T04:24:36.458Z,3.60
2019-03-12T04:27:04.494Z,3.50
2019-03-12T04:29:35.469Z,3.60
2019-03-12T04:32:03.088Z,3.50
2019-03-12T04:34:33.822Z,3.30
2019-03-12T04:37:01.502Z,3.30
2019-03-12T04:39:29.663Z,3.30
2019-03-12T04:41:57.458Z,3.10
2019-03-12T04:44:25.532Z,3.10
2019-03-12T04:46:54.905Z,3.10
2019-03-12T04:49:22.762Z,3.10
2019-03-12T04:51:51.022Z,3.20
2019-03-12T04:54:19.188Z,3.10
2019-03-12T04:56:47.183Z,3.10
2019-03-12T04:59:15.177Z,3.10
2019-03-12T05:01:43.587Z,3.10
2019-03-12T05:04:12.120Z,3.10
2019-03-12T05:06:40.044Z,3.00
2019-03-12T05:09:08.978Z,2.80
2019-03-12T05:11:37.605Z,2.90
2019-03-12T05:14:25.563Z,2.90
2019-03-12T05:16:55.489Z,3.00
2019-03-12T05:19:24.132Z,3.20
2019-03-12T05:21:52.384Z,3.30
2019-03-12T05:24:20.534Z,3.30
2019-03-12T05:26:49.420Z,3.30
2019-03-12T05:29:17.830Z,3.30
2019-03-12T05:31:46.752Z,3.40
2019-03-12T05:34:14.950Z,3.40
2019-03-12T05:36:42.800Z,3.40
2019-03-12T05:39:10.951Z,3.30
2019-03-12T05:41:39.198Z,3.20
2019-03-12T05:44:07.030Z,3.20
2019-03-12T05:46:35.270Z,3.20
2019-03-12T05:49:03.584Z,3.40
2019-03-12T05:51:31.932Z,3.40
2019-03-12T05:54:06.514Z,3.40
2019-03-12T05:56:38.653Z,3.50
2019-03-12T05:59:06.969Z,3.50
2019-03-12T06:01:34.943Z,3.50
2019-03-12T06:04:02.904Z,3.60
2019-03-12T06:06:31.176Z,3.60
2019-03-12T06:08:59.303Z,3.70
2019-03-12T06:11:27.101Z,3.80
2019-03-12T06:13:55.503Z,4.00
2019-03-12T06:16:23.540Z,4.00
2019-03-12T06:18:51.538Z,4.20
2019-03-12T06:21:21.252Z,4.20
2019-03-12T06:23:48.835Z,4.20
2019-03-12T06:26:16.486Z,4.20
2019-03-12T06:28:44.914Z,4.10
2019-03-12T06:31:39.279Z,4.10
2019-03-12T06:34:16.965Z,4.10
2019-03-12T06:37:25.072Z,4.00
2019-03-12T06:40:15.297Z,4.00
2019-03-12T06:42:57.124Z,3.90
2019-03-12T06:45:56.284Z,4.00
2019-03-12T06:48:43.331Z,3.80
2019-03-12T06:51:33.149Z,3.80
2019-03-12T06:54:11.514Z,3.90
2019-03-12T06:56:50.704Z,4.10
2019-03-12T06:59:47.425Z,4.20
2019-03-12T07:02:35.282Z,4.20
2019-03-12T07:05:40.846Z,4.10
2019-03-12T07:08:40.095Z,4.30
2019-03-12T07:11:45.114Z,4.70
2019-03-12T07:14:44.768Z,4.70
2019-03-12T07:18:09.141Z,4.80
2019-03-12T07:21:15.804Z,4.90
2019-03-12T07:24:04.491Z,5.60
2019-03-12T07:26:47.552Z,6.10
2019-03-12T07:29:48.317Z,6.50
2019-03-12T07:32:47.426Z,7.00
2019-03-12T07:36:03.634Z,7.40
2019-03-12T07:39:14.458Z,7.60
2019-03-12T07:42:07.801Z,7.70
2019-03-12T07:44:53.279Z,7.80
2019-03-12T07:47:43.851Z,7.80
2019-03-12T07:50:48.551Z,7.90
2019-03-12T07:53:59.713Z,7.80
2019-03-12T07:56:57.367Z,7.70
2019-03-12T07:59:56.093Z,7.70
2019-03-12T08:02:52.114Z,7.60
2019-03-12T08:05:52.670Z,7.50
2019-03-12T08:08:45.839Z,7.50
2019-03-12T08:11:39.444Z,7.50
2019-03-12T08:14:27.473Z,7.70
2019-03-12T08:17:05.514Z,7.80
2019-03-12T08:19:53.277Z,7.90
2019-03-12T08:22:46.446Z,7.90
2019-03-12T08:25:28.629Z,7.80
2019-03-12T08:28:28.961Z,8.00
2019-03-12T08:31:12.629Z,8.10
2019-03-12T08:33:50.515Z,8.20
2019-03-12T08:36:30.733Z,8.40
2019-03-12T08:39:20.590Z,8.40
2019-03-12T08:42:18.862Z,8.60
2019-03-12T08:45:04.897Z,8.60
2019-03-12T08:48:02.991Z,8.80
2019-03-12T08:50:43.201Z,8.90
2019-03-12T08:53:37.485Z,9.00
2019-03-12T08:56:37.371Z,9.30
2019-03-12T08:59:30.486Z,9.60
2019-03-12T09:02:24.074Z,9.70
2019-03-12T09:05:17.911Z,9.60
2019-03-12T09:07:56.874Z,9.50
2019-03-12T09:10:46.773Z,9.70
2019-03-12T09:13:36.311Z,10.00
2019-03-12T09:16:18.754Z,10.60
2019-03-12T09:19:07.404Z,11.10
2019-03-12T09:22:09.579Z,11.50
2019-03-12T09:25:07.318Z,11.60
2019-03-12T09:28:10.611Z,11.30
2019-03-12T09:31:16.819Z,11.00
2019-03-12T09:34:11.819Z,10.90
2019-03-12T09:37:20.961Z,10.80
2019-03-12T09:40:37.669Z,10.50
2019-03-12T09:43:53.716Z,10.10
2019-03-12T09:46:37.935Z,10.10
2019-03-12T09:49:36.063Z,10.20
2019-03-12T09:55:42.653Z,10.50
2019-03-12T09:58:46.673Z,10.40
2019-03-12T10:01:41.853Z,10.30
2019-03-12T10:04:29.022Z,10.10
2019-03-12T10:07:40.401Z,10.30
2019-03-12T10:10:43.181Z,10.50
2019-03-12T10:13:44.271Z,10.60
2019-03-12T10:16:37.991Z,10.90
2019-03-12T10:19:27.407Z,11.00
2019-03-12T10:22:25.674Z,11.10
2019-03-12T10:25:30.031Z,11.20
2019-03-12T10:28:11.296Z,11.10
2019-03-12T10:31:08.901Z,11.10
2019-03-12T10:33:59.068Z,11.10
2019-03-12T10:36:44.545Z,11.00
2019-03-12T10:40:05.935Z,10.60
2019-03-12T10:43:09.645Z,10.70
2019-03-12T10:46:12.788Z,11.00
2019-03-12T10:48:55.118Z,11.00
2019-03-12T10:51:33.521Z,11.10
2019-03-12T10:54:01.047Z,11.40
2019-03-12T10:56:28.563Z,11.50
2019-03-12T10:58:56.061Z,11.50
2019-03-12T11:01:25.525Z,11.50
2019-03-12T11:03:54.024Z,11.50
2019-03-12T11:06:24.259Z,11.60
2019-03-12T11:08:52.160Z,11.40
2019-03-12T11:11:20.509Z,11.40
2019-03-12T11:13:52.549Z,11.40
2019-03-12T11:16:30.147Z,11.50
2019-03-12T11:19:13.119Z,11.60
2019-03-12T11:21:41.728Z,11.60
2019-03-12T11:24:09.468Z,11.60
2019-03-12T11:26:37.324Z,11.60
2019-03-12T11:29:05.389Z,11.70
2019-03-12T11:31:32.940Z,11.70
2019-03-12T11:34:05.963Z,11.80
2019-03-12T11:36:48.035Z,11.60
2019-03-12T11:39:17.213Z,11.70
2019-03-12T11:41:58.750Z,11.70
2019-03-12T11:44:38.630Z,11.80
2019-03-12T11:47:12.072Z,11.80
2019-03-12T11:49:51.627Z,11.80
2019-03-12T11:52:22.620Z,11.80
2019-03-12T11:54:54.943Z,11.70
2019-03-12T11:57:28.731Z,11.60
2019-03-12T12:00:03.313Z,11.70
2019-03-12T12:02:33.922Z,11.70
2019-03-12T12:05:09.786Z,11.80
2019-03-12T12:07:51.269Z,11.80
2019-03-12T12:10:22.809Z,11.80
2019-03-12T12:13:00.243Z,11.70
2019-03-12T12:15:27.806Z,11.70
2019-03-12T12:18:01.847Z,11.90
2019-03-12T12:20:30.453Z,12.00
2019-03-12T12:22:58.235Z,11.90
2019-03-12T12:25:25.705Z,11.80
2019-03-12T12:27:53.330Z,11.70
2019-03-12T12:30:20.999Z,11.80
2019-03-12T12:32:48.486Z,11.60
2019-03-12T12:35:15.973Z,11.70
2019-03-12T12:37:43.816Z,11.90
2019-03-12T12:40:13.112Z,11.90
2019-03-12T12:42:40.629Z,11.90
2019-03-12T12:45:13.261Z,11.90
2019-03-12T12:47:40.771Z,11.70
2019-03-12T12:50:08.448Z,11.50
2019-03-12T12:52:36.362Z,11.30
2019-03-12T12:55:08.617Z,11.10
2019-03-12T12:57:39.152Z,11.10
2019-03-12T13:00:10.972Z,11.10
2019-03-12T13:02:38.482Z,11.00
2019-03-12T13:05:06.164Z,11.10
2019-03-12T13:07:33.871Z,11.10
2019-03-12T13:10:01.399Z,11.20
2019-03-12T13:12:29.508Z,11.20
2019-03-12T13:15:06.933Z,11.20
2019-03-12T13:17:41.471Z,11.20
2019-03-12T13:20:09.862Z,11.30
2019-03-12T13:22:41.203Z,11.50
2019-03-12T13:25:21.042Z,11.50
2019-03-12T13:27:48.550Z,11.50
2019-03-12T13:30:18.058Z,11.50
2019-03-12T13:32:46.494Z,11.50
2019-03-12T13:35:14.293Z,11.50
2019-03-12T13:37:43.034Z,11.50
2019-03-12T13:40:12.188Z,11.50
2019-03-12T13:42:39.717Z,11.50
2019-03-12T13:45:07.994Z,11.40
2019-03-12T13:47:35.943Z,11.40
2019-03-12T13:50:04.434Z,11.30
2019-03-12T13:52:32.488Z,11.30
2019-03-12T13:55:00.091Z,11.20
2019-03-12T13:57:28.932Z,11.20
2019-03-12T13:59:56.475Z,11.30
2019-03-12T14:02:24.255Z,11.30
2019-03-12T14:04:51.797Z,11.30
2019-03-12T14:07:19.638Z,11.30
2019-03-12T14:09:47.613Z,11.30
2019-03-12T14:12:15.556Z,11.30
2019-03-12T14:14:43.361Z,11.40
2019-03-12T14:17:10.981Z,11.40
2019-03-12T14:19:38.906Z,11.40
2019-03-12T14:22:07.793Z,11.60
2019-03-12T14:24:36.172Z,11.60
2019-03-12T14:27:03.734Z,11.70
2019-03-12T14:29:31.408Z,11.70
2019-03-12T14:31:59.073Z,11.60
2019-03-12T14:34:27.333Z,11.60
2019-03-12T14:36:55.083Z,11.60
2019-03-12T14:39:22.652Z,11.60
2019-03-12T14:41:50.165Z,11.60
2019-03-12T14:44:22.188Z,11.60
2019-03-12T14:46:58.958Z,11.50
2019-03-12T14:49:26.905Z,11.50
2019-03-12T14:52:08.115Z,11.50
2019-03-12T14:54:35.660Z,11.50
2019-03-12T14:57:03.152Z,11.60
2019-03-12T14:59:32.169Z,11.60
2019-03-12T15:01:59.756Z,11.60
2019-03-12T15:04:28.848Z,11.50
2019-03-12T15:07:01.906Z,11.50
2019-03-12T15:09:30.242Z,11.50
2019-03-12T15:11:57.873Z,11.60
2019-03-12T15:14:33.366Z,11.60
2019-03-12T15:17:01.446Z,11.50
2019-03-12T15:19:29.333Z,11.60
2019-03-12T15:22:14.916Z,11.60
2019-03-12T15:24:47.923Z,11.60
2019-03-12T15:27:36.249Z,11.50
2019-03-12T15:30:16.398Z,11.60
2019-03-12T15:33:02.709Z,11.60
2019-03-12T15:38:43.906Z,11.60
2019-03-12T15:42:03.078Z,11.50
2019-03-12T15:43:46.148Z,11.40
2019-03-12T15:46:36.999Z,11.40
2019-03-12T15:49:07.120Z,11.40
2019-03-12T15:52:06.675Z,11.40
2019-03-12T15:55:09.651Z,11.40
2019-03-12T15:57:49.565Z,11.40
2019-03-12T16:00:18.109Z,11.30
2019-03-12T16:02:56.823Z,11.40
2019-03-12T16:05:44.071Z,11.40
2019-03-12T16:08:17.031Z,11.30
2019-03-12T16:11:24.777Z,11.40
2019-03-12T16:14:04.363Z,11.40
2019-03-12T16:16:35.321Z,11.40
2019-03-12T16:19:06.447Z,11.30
2019-03-12T16:21:43.779Z,11.40
2019-03-12T16:24:15.192Z,11.30
2019-03-12T16:26:56.426Z,11.20
2019-03-12T16:29:40.652Z,11.20
2019-03-12T16:32:18.402Z,11.20
2019-03-12T16:35:01.738Z,11.20
2019-03-12T16:37:49.682Z,11.20
2019-03-12T16:40:38.105Z,11.00
2019-03-12T16:43:07.362Z,11.00
2019-03-12T16:45:35.851Z,11.00
2019-03-12T16:48:11.949Z,10.90
2019-03-12T16:50:51.049Z,10.80
2019-03-12T16:53:23.020Z,10.80
2019-03-12T16:56:00.577Z,10.80
2019-03-12T16:58:36.539Z,10.70
2019-03-12T17:04:19.309Z,10.60
2019-03-12T17:06:48.858Z,10.60
2019-03-12T17:09:16.574Z,10.60
2019-03-12T17:11:45.846Z,10.60
2019-03-12T17:14:16.339Z,10.40
2019-03-12T17:16:43.817Z,10.40
2019-03-12T17:21:57.006Z,10.40
2019-03-12T17:30:04.854Z,10.40
2019-03-12T17:32:42.403Z,10.40
2019-03-12T17:56:46.792Z,10.20
2019-03-12T17:59:18.458Z,10.20
2019-03-12T18:02:14.242Z,10.20
2019-03-12T18:05:29.179Z,10.30
2019-03-12T18:08:08.882Z,10.20
2019-03-12T18:13:53.821Z,10.20
2019-03-12T18:16:25.521Z,10.20
2019-03-12T18:18:57.906Z,10.20
2019-03-12T18:21:26.057Z,10.30
2019-03-12T18:23:57.673Z,10.30
2019-03-12T18:26:29.707Z,10.30
2019-03-12T18:28:59.439Z,10.40
2019-03-12T18:31:52.419Z,10.50
2019-03-12T18:34:20.785Z,10.50
2019-03-12T18:37:05.992Z,10.50
2019-03-12T18:40:03.676Z,10.50
2019-03-12T18:42:35.525Z,10.50
2019-03-12T18:45:47.769Z,10.40
2019-03-12T18:48:57.632Z,10.40
2019-03-12T18:51:45.170Z,10.50
2019-03-12T18:55:00.014Z,10.50
2019-03-12T18:58:25.269Z,10.50
2019-03-12T19:01:29.812Z,10.60
2019-03-12T19:04:42.392Z,10.60
2019-03-12T19:07:18.396Z,10.60
2019-03-12T19:10:08.092Z,10.70
2019-03-12T19:13:07.148Z,10.80
2019-03-12T19:15:42.428Z,10.80
2019-03-12T19:18:20.328Z,10.80
2019-03-12T19:20:50.444Z,10.70
2019-03-12T19:23:18.721Z,10.60
2019-03-12T19:26:09.353Z,10.60
2019-03-12T19:28:44.953Z,10.60
2019-03-12T19:31:39.727Z,10.50
2019-03-12T19:34:15.089Z,10.40
2019-03-12T19:36:44.609Z,10.40
2019-03-12T19:39:15.386Z,10.50
2019-03-12T19:42:07.249Z,10.70
2019-03-12T19:44:38.183Z,10.90
2019-03-12T19:47:06.237Z,11.20
2019-03-12T19:49:34.280Z,11.40
2019-03-12T19:52:06.629Z,11.50
2019-03-12T19:54:36.320Z,11.50
2019-03-12T19:57:07.261Z,11.40
2019-03-12T19:59:36.591Z,11.40
2019-03-12T20:02:15.908Z,11.10
2019-03-12T20:04:46.743Z,10.80
2019-03-12T20:07:07.761Z,10.70
2019-03-12T20:09:49.867Z,10.70
2019-03-12T20:12:47.886Z,10.70
2019-03-12T20:16:07.626Z,10.60
2019-03-12T20:19:00.805Z,10.60
2019-03-12T20:22:05.167Z,10.50
2019-03-12T20:25:22.501Z,10.50
2019-03-12T20:28:46.974Z,10.50
2019-03-12T20:32:07.633Z,10.50
2019-03-12T20:35:14.342Z,10.50
2019-03-12T20:38:49.515Z,10.50
2019-03-12T20:41:55.207Z,10.60
2019-03-12T20:45:12.773Z,11.10
2019-03-12T20:49:11.678Z,11.50
2019-03-12T20:52:40.604Z,11.60
2019-03-12T20:55:47.049Z,11.60
2019-03-12T20:58:51.256Z,11.50
2019-03-12T21:02:04.825Z,11.10
2019-03-12T21:05:26.548Z,10.90
2019-03-12T21:08:37.798Z,10.80
2019-03-12T21:11:48.958Z,10.60
2019-03-12T21:15:15.564Z,10.50
2019-03-12T21:18:30.749Z,10.50
2019-03-12T21:21:45.341Z,10.50
2019-03-12T21:24:44.717Z,10.40
2019-03-12T21:27:57.329Z,10.30
2019-03-12T21:30:28.221Z,10.30
2019-03-12T21:32:56.144Z,10.20
2019-03-12T21:35:23.829Z,10.20
2019-03-12T21:37:52.152Z,10.10
2019-03-12T21:40:20.947Z,10.10
2019-03-12T21:42:49.464Z,10.00
2019-03-12T21:45:18.155Z,10.10
2019-03-12T21:47:54.683Z,10.00
2019-03-12T21:50:24.269Z,10.00
2019-03-12T21:52:52.267Z,9.90
2019-03-12T21:55:21.272Z,9.80
2019-03-12T21:57:49.399Z,9.80
2019-03-12T22:00:17.858Z,9.70
2019-03-12T22:02:47.463Z,9.70
2019-03-12T22:05:52.197Z,9.80
2019-03-12T22:08:25.103Z,9.70
2019-03-12T22:11:59.332Z,9.70
2019-03-12T22:14:51.881Z,9.60
2019-03-12T22:17:19.829Z,9.60
2019-03-12T22:19:52.624Z,9.60
2019-03-12T22:25:27.306Z,9.70
2019-03-12T22:28:08.212Z,9.60
2019-03-12T22:30:55.846Z,9.60
2019-03-12T22:33:26.673Z,9.60
2019-03-12T22:35:56.707Z,9.60
2019-03-12T22:38:25.214Z,9.50
2019-03-12T22:40:54.249Z,9.60
2019-03-12T22:43:22.578Z,9.60
2019-03-12T22:45:52.563Z,9.60
2019-03-12T22:48:20.633Z,9.50
2019-03-12T22:50:50.852Z,9.50
2019-03-12T22:53:23.786Z,9.40
2019-03-12T22:56:18.988Z,9.30
2019-03-12T22:58:52.328Z,9.20
2019-03-12T23:01:20.258Z,9.10
2019-03-12T23:03:48.589Z,9.20
2019-03-12T23:06:23.300Z,9.20
2019-03-12T23:08:55.971Z,9.30
2019-03-12T23:11:24.306Z,9.30
2019-03-12T23:13:52.101Z,9.30
2019-03-12T23:16:23.822Z,9.30
2019-03-12T23:18:52.276Z,9.30
2019-03-12T23:21:21.821Z,9.30
2019-03-12T23:23:51.092Z,9.20
2019-03-12T23:26:19.958Z,9.30
2019-03-12T23:28:47.667Z,9.30
2019-03-12T23:31:26.101Z,9.20
2019-03-12T23:33:53.925Z,9.20
2019-03-12T23:36:22.914Z,9.20
2019-03-12T23:38:50.822Z,9.30
2019-03-12T23:41:41.002Z,9.10
2019-03-12T23:44:11.755Z,8.80
2019-03-12T23:46:43.222Z,8.90
2019-03-12T23:49:11.750Z,9.30
2019-03-12T23:51:39.789Z,9.50
2019-03-12T23:54:08.240Z,9.70
2019-03-12T23:56:58.917Z,9.90
2019-03-12T23:59:44.472Z,10.00
